Kooskia, Idaho
Current Conditions -  °F | °C
As of 11:15 PM on Thursday 27 Nov 2014 (Local Time) from KGIC Reporting Station
Broken Clouds Broken Clouds  
Wind Chill: 51°   Ceiling: 11000
Heat Index: 51°   Visibility: 10mi
Dew Point: 37°   Wind: 22mph
Humidity: 58%   Direction: 210°SSW
Pressure: 29.86"   Gusts: 32mph
Location:  46.14°N, 115.98°W
Report Text: KGIC 280715Z AUTO 21019G28KT 10SM SCT090 BKN110 11/03 A2986 RMK AO1 T01060027
Loading
Personal Weather Stations






























Interactive Weather Map New forecast layout! Learn more

10-Day Weather Forecast

Advertisements
Track Severe Weather on mobile